Denham, Indiana
Current Conditions -  °F | °C
As of 5:15 PM on Monday 22 Dec 2014 (Local Time) from KOXI Reporting Station
Overcast Overcast  
Wind Chill: 29°   Ceiling: 4100
Heat Index: 38°   Visibility: 2mi
Dew Point: 33°   Wind: 15mph
Humidity: 85%   Direction: 120°ESE
Pressure: 29.74"   Gusts: NA
Location:  41.0563°N, 86.6606°W
Report Text: KOXI 222315Z AUTO 12013KT 2SM SCT029 BKN041 OVC050 03/01 A2974 RMK AO1 T00310008
Loading
Personal Weather Stations






























Interactive Weather Map New forecast layout! Learn more

10-Day Weather Forecast

Advertisements
Track Severe Weather on mobile